createdAt,value
2018-05-19T00:01:06.522Z,99.90
2018-05-19T00:03:34.105Z,99.90
2018-05-19T00:06:01.638Z,99.90
2018-05-19T00:08:29.176Z,99.90
2018-05-19T00:10:56.769Z,99.90
2018-05-19T00:13:24.401Z,99.90
2018-05-19T00:15:52.865Z,99.90
2018-05-19T00:18:21.213Z,99.90
2018-05-19T00:20:48.750Z,99.90
2018-05-19T00:23:16.290Z,99.90
2018-05-19T00:25:44.705Z,99.90
2018-05-19T00:28:12.228Z,99.90
2018-05-19T00:30:39.769Z,99.90
2018-05-19T00:33:07.362Z,99.90
2018-05-19T00:35:34.907Z,99.90
2018-05-19T00:38:02.564Z,99.90
2018-05-19T00:40:30.255Z,99.90
2018-05-19T00:42:57.795Z,99.90
2018-05-19T00:45:25.367Z,99.90
2018-05-19T00:47:53.115Z,99.90
2018-05-19T00:50:20.664Z,99.90
2018-05-19T00:52:48.210Z,99.90
2018-05-19T00:55:15.799Z,99.90
2018-05-19T00:57:43.343Z,99.90
2018-05-19T01:00:10.908Z,99.90
2018-05-19T01:02:38.490Z,99.90
2018-05-19T01:05:06.030Z,99.90
2018-05-19T01:07:34.336Z,99.90
2018-05-19T01:10:01.978Z,99.90
2018-05-19T01:12:29.492Z,99.90
2018-05-19T01:14:57.033Z,99.90
2018-05-19T01:17:25.385Z,99.90
2018-05-19T01:19:53.192Z,99.90
2018-05-19T01:22:21.496Z,99.90
2018-05-19T01:24:49.900Z,99.90
2018-05-19T01:27:17.476Z,99.90
2018-05-19T01:29:45.022Z,99.90
2018-05-19T01:32:13.396Z,99.90
2018-05-19T01:34:40.932Z,99.90
2018-05-19T01:37:08.479Z,99.90
2018-05-19T01:39:36.089Z,99.90
2018-05-19T01:42:03.622Z,99.90
2018-05-19T01:44:31.208Z,99.90
2018-05-19T01:46:58.791Z,99.90
2018-05-19T01:49:26.356Z,99.90
2018-05-19T01:51:53.885Z,99.90
2018-05-19T01:54:21.609Z,99.90
2018-05-19T01:56:49.141Z,99.90
2018-05-19T01:59:16.675Z,99.90
2018-05-19T02:01:44.253Z,99.90
2018-05-19T02:04:11.798Z,99.90
2018-05-19T02:06:39.343Z,99.90
2018-05-19T02:09:06.970Z,99.90
2018-05-19T02:11:34.500Z,99.90
2018-05-19T02:14:02.044Z,99.90
2018-05-19T02:16:29.621Z,99.90
2018-05-19T02:18:57.153Z,99.90
2018-05-19T02:21:24.683Z,99.90
2018-05-19T02:23:52.261Z,99.90
2018-05-19T02:26:19.799Z,99.90
2018-05-19T02:28:47.341Z,99.90
2018-05-19T02:31:15.681Z,99.90
2018-05-19T02:33:43.220Z,99.90
2018-05-19T02:36:10.757Z,99.90
2018-05-19T02:38:38.333Z,99.90
2018-05-19T02:41:05.869Z,99.90
2018-05-19T02:43:33.402Z,99.90
2018-05-19T02:46:00.999Z,99.90
2018-05-19T02:48:28.538Z,99.90
2018-05-19T02:50:56.866Z,99.90
2018-05-19T02:53:24.441Z,99.90
2018-05-19T02:55:51.969Z,99.90
2018-05-19T02:58:20.261Z,99.90
2018-05-19T03:00:48.601Z,99.90
2018-05-19T03:03:16.149Z,99.90
2018-05-19T03:05:43.696Z,99.90
2018-05-19T03:08:11.281Z,99.90
2018-05-19T03:10:38.816Z,99.90
2018-05-19T03:13:07.118Z,99.90
2018-05-19T03:15:35.474Z,99.90
2018-05-19T03:18:03.004Z,99.90
2018-05-19T03:20:30.538Z,99.90
2018-05-19T03:22:58.878Z,99.90
2018-05-19T03:25:26.409Z,99.90
2018-05-19T03:27:54.705Z,99.90
2018-05-19T03:30:22.286Z,99.90
2018-05-19T03:32:49.820Z,99.90
2018-05-19T03:35:18.124Z,99.90
2018-05-19T03:37:46.526Z,99.90
2018-05-19T03:40:14.931Z,99.90
2018-05-19T03:42:42.517Z,99.90
2018-05-19T03:45:10.106Z,99.90
2018-05-19T03:47:37.648Z,99.90
2018-05-19T03:50:05.177Z,99.90
2018-05-19T03:52:32.775Z,99.90
2018-05-19T03:55:00.312Z,99.90
2018-05-19T03:57:39.669Z,99.90
2018-05-19T04:00:18.921Z,99.90
2018-05-19T04:02:47.268Z,99.90
2018-05-19T04:05:14.821Z,99.90
2018-05-19T04:07:42.384Z,99.90
2018-05-19T04:10:09.979Z,99.90
2018-05-19T04:12:37.509Z,99.90
2018-05-19T04:15:05.060Z,99.90
2018-05-19T04:17:32.631Z,99.90
2018-05-19T04:20:01.072Z,99.90
2018-05-19T04:22:28.617Z,99.90
2018-05-19T04:24:56.974Z,99.90
2018-05-19T04:27:24.509Z,99.90
2018-05-19T04:29:52.094Z,99.90
2018-05-19T04:32:19.672Z,99.90
2018-05-19T04:34:47.216Z,99.90
2018-05-19T04:37:14.740Z,99.90
2018-05-19T04:39:42.333Z,99.90
2018-05-19T04:42:10.633Z,99.90
2018-05-19T04:44:38.182Z,99.90
2018-05-19T04:47:06.520Z,99.90
2018-05-19T04:49:34.052Z,99.90
2018-05-19T04:52:02.868Z,99.90
2018-05-19T04:54:30.472Z,99.90
2018-05-19T04:56:58.100Z,99.90
2018-05-19T04:59:25.562Z,99.90
2018-05-19T05:01:54.848Z,99.90
2018-05-19T05:04:22.389Z,99.90
2018-05-19T05:06:49.917Z,99.90
2018-05-19T05:09:18.259Z,99.90
2018-05-19T05:11:45.796Z,99.90
2018-05-19T05:14:13.336Z,99.90
2018-05-19T05:16:41.681Z,99.90
2018-05-19T05:19:09.213Z,99.90
2018-05-19T05:21:37.506Z,99.90
2018-05-19T05:24:05.157Z,99.90
2018-05-19T05:26:33.465Z,99.90
2018-05-19T05:29:01.005Z,99.90
2018-05-19T05:31:28.584Z,99.90
2018-05-19T05:33:56.113Z,99.90
2018-05-19T05:36:24.857Z,99.90
2018-05-19T05:38:53.243Z,99.90
2018-05-19T05:41:20.772Z,99.90
2018-05-19T05:43:48.311Z,99.90
2018-05-19T05:46:15.890Z,99.90
2018-05-19T05:48:43.417Z,99.90
2018-05-19T05:51:10.949Z,99.90
2018-05-19T05:53:38.617Z,99.90
2018-05-19T05:56:06.156Z,99.90
2018-05-19T05:58:34.461Z,99.90
2018-05-19T06:01:02.032Z,99.90
2018-05-19T06:03:29.574Z,99.90
2018-05-19T06:05:57.108Z,99.90
2018-05-19T06:08:24.764Z,99.90
2018-05-19T06:10:52.426Z,99.90
2018-05-19T06:13:20.011Z,99.90
2018-05-19T06:15:47.676Z,99.90
2018-05-19T06:18:15.216Z,99.90
2018-05-19T06:20:43.550Z,99.90
2018-05-19T06:23:11.124Z,99.90
2018-05-19T06:25:38.685Z,99.90
2018-05-19T06:28:06.222Z,99.90
2018-05-19T06:30:34.568Z,99.90
2018-05-19T06:33:02.109Z,99.90
2018-05-19T06:35:29.680Z,99.90
2018-05-19T06:37:57.263Z,99.90
2018-05-19T06:40:25.774Z,99.90
2018-05-19T06:42:53.313Z,99.90
2018-05-19T06:45:20.910Z,99.90
2018-05-19T06:47:48.558Z,99.90
2018-05-19T06:50:16.097Z,99.90
2018-05-19T06:52:44.509Z,99.90
2018-05-19T06:55:12.109Z,99.90
2018-05-19T06:57:39.659Z,99.90
2018-05-19T07:00:07.229Z,99.90
2018-05-19T07:02:34.811Z,99.90
2018-05-19T07:05:02.334Z,99.90
2018-05-19T07:07:29.909Z,99.90
2018-05-19T07:09:58.246Z,99.90
2018-05-19T07:12:25.846Z,99.90
2018-05-19T07:14:53.469Z,99.90
2018-05-19T07:17:21.781Z,99.90
2018-05-19T07:19:49.364Z,99.90
2018-05-19T07:22:16.962Z,99.90
2018-05-19T07:24:44.489Z,99.90
2018-05-19T07:27:12.029Z,99.90
2018-05-19T07:29:40.361Z,99.90
2018-05-19T07:32:08.218Z,99.90
2018-05-19T07:34:35.826Z,99.90
2018-05-19T07:37:03.437Z,99.90
2018-05-19T07:39:31.742Z,99.90
2018-05-19T07:42:00.048Z,99.90
2018-05-19T07:44:27.638Z,99.90
2018-05-19T07:46:56.109Z,99.90
2018-05-19T07:49:23.636Z,99.90
2018-05-19T07:51:51.217Z,99.90
2018-05-19T07:54:18.757Z,99.90
2018-05-19T07:56:46.294Z,99.90
2018-05-19T07:59:13.880Z,99.90
2018-05-19T08:01:41.421Z,99.90
2018-05-19T08:04:09.827Z,99.90
2018-05-19T08:06:37.348Z,99.90
2018-05-19T08:09:05.788Z,99.90
2018-05-19T08:11:33.330Z,99.90
2018-05-19T08:14:01.711Z,99.60
2018-05-19T08:16:29.248Z,99.60
2018-05-19T08:18:56.776Z,99.30
2018-05-19T08:21:26.049Z,99.90
2018-05-19T08:23:53.628Z,99.90
2018-05-19T08:26:21.160Z,99.50
2018-05-19T08:28:48.740Z,99.40
2018-05-19T08:31:16.277Z,99.00
2018-05-19T08:33:44.578Z,99.10
2018-05-19T08:36:12.158Z,99.10
2018-05-19T08:38:39.706Z,98.90
2018-05-19T08:41:07.278Z,98.20
2018-05-19T08:43:35.626Z,98.00
2018-05-19T08:46:03.171Z,98.00
2018-05-19T08:48:30.705Z,97.10
2018-05-19T08:50:59.055Z,97.20
2018-05-19T08:53:26.602Z,97.20
2018-05-19T08:55:54.144Z,96.80
2018-05-19T08:58:21.733Z,96.30
2018-05-19T09:00:49.269Z,96.50
2018-05-19T09:03:17.584Z,97.00
2018-05-19T09:05:45.169Z,97.00
2018-05-19T09:08:12.749Z,96.50
2018-05-19T09:10:40.315Z,96.10
2018-05-19T09:13:07.901Z,95.70
2018-05-19T09:15:35.438Z,94.40
2018-05-19T09:18:02.988Z,93.50
2018-05-19T09:20:31.330Z,93.30
2018-05-19T09:22:58.876Z,93.30
2018-05-19T09:25:26.465Z,92.60
2018-05-19T09:27:54.062Z,91.90
2018-05-19T09:30:21.613Z,92.50
2018-05-19T09:32:49.148Z,92.30
2018-05-19T09:35:16.730Z,91.50
2018-05-19T09:37:44.290Z,91.70
2018-05-19T09:40:11.842Z,90.60
2018-05-19T09:42:40.232Z,91.50
2018-05-19T09:45:08.536Z,90.70
2018-05-19T09:47:36.857Z,90.20
2018-05-19T09:50:04.457Z,90.10
2018-05-19T09:52:31.999Z,90.40
2018-05-19T09:54:59.565Z,90.10
2018-05-19T09:57:27.146Z,89.80
2018-05-19T09:59:54.686Z,89.30
2018-05-19T10:02:22.292Z,89.70
2018-05-19T10:04:49.930Z,90.20
2018-05-19T10:07:17.437Z,91.60
2018-05-19T10:09:45.929Z,91.50
2018-05-19T10:12:13.511Z,91.00
2018-05-19T10:14:41.100Z,90.40
2018-05-19T10:17:08.634Z,89.70
2018-05-19T10:19:36.231Z,88.00
2018-05-19T10:22:03.773Z,89.20
2018-05-19T10:24:31.312Z,88.80
2018-05-19T10:26:59.669Z,84.80
2018-05-19T10:29:27.225Z,84.80
2018-05-19T10:31:54.761Z,85.70
2018-05-19T10:34:22.332Z,87.70
2018-05-19T10:36:49.874Z,90.20
2018-05-19T10:39:17.498Z,90.30
2018-05-19T10:41:45.083Z,91.50
2018-05-19T10:44:12.620Z,91.80
2018-05-19T10:46:40.224Z,91.30
2018-05-19T10:49:07.805Z,91.40
2018-05-19T10:51:35.345Z,91.20
2018-05-19T10:54:02.886Z,91.00
2018-05-19T10:56:31.241Z,91.00
2018-05-19T10:58:58.822Z,91.00
2018-05-19T11:01:27.142Z,92.30
2018-05-19T11:03:56.570Z,92.90
2018-05-19T11:06:24.105Z,92.90
2018-05-19T11:08:51.651Z,93.80
2018-05-19T11:11:19.229Z,94.30
2018-05-19T11:13:46.784Z,94.10
2018-05-19T11:16:14.330Z,94.20
2018-05-19T11:18:42.015Z,94.50
2018-05-19T11:21:09.473Z,94.30
2018-05-19T11:23:37.016Z,94.20
2018-05-19T11:26:05.373Z,94.50
2018-05-19T11:28:32.909Z,94.60
2018-05-19T11:31:00.442Z,94.70
2018-05-19T11:33:28.786Z,93.90
2018-05-19T11:35:57.204Z,94.20
2018-05-19T11:38:24.703Z,94.20
2018-05-19T11:40:53.060Z,93.50
2018-05-19T11:43:20.597Z,93.50
2018-05-19T11:45:48.143Z,93.10
2018-05-19T11:48:15.756Z,92.90
2018-05-19T11:50:43.335Z,93.30
2018-05-19T11:53:10.885Z,93.00
2018-05-19T11:55:38.464Z,93.00
2018-05-19T11:58:06.006Z,93.10
2018-05-19T12:00:33.552Z,93.40
2018-05-19T12:03:01.906Z,92.80
2018-05-19T12:05:29.449Z,92.70
2018-05-19T12:07:57.009Z,92.50
2018-05-19T12:10:24.589Z,92.30
2018-05-19T12:12:52.148Z,91.50
2018-05-19T12:15:19.692Z,91.40
2018-05-19T12:17:47.260Z,90.10
2018-05-19T12:20:14.792Z,89.90
2018-05-19T12:22:42.352Z,90.20
2018-05-19T12:25:09.945Z,90.80
2018-05-19T12:27:37.485Z,90.30
2018-05-19T12:30:05.017Z,89.70
2018-05-19T12:32:32.596Z,89.90
2018-05-19T12:35:00.898Z,89.40
2018-05-19T12:37:28.441Z,89.20
2018-05-19T12:39:56.641Z,90.00
2018-05-19T12:42:24.944Z,89.60
2018-05-19T12:44:53.242Z,89.80
2018-05-19T12:47:20.838Z,89.70
2018-05-19T12:49:48.399Z,90.10
2018-05-19T12:52:15.946Z,90.30
2018-05-19T12:54:44.297Z,90.10
2018-05-19T12:57:11.839Z,90.10
2018-05-19T12:59:39.380Z,90.00
2018-05-19T13:02:06.981Z,90.00
2018-05-19T13:04:34.518Z,88.90
2018-05-19T13:07:02.822Z,88.20
2018-05-19T13:09:30.405Z,88.20
2018-05-19T13:11:57.991Z,88.70
2018-05-19T13:14:25.565Z,88.30
2018-05-19T13:16:53.145Z,87.90
2018-05-19T13:19:20.709Z,86.40
2018-05-19T13:21:48.239Z,86.80
2018-05-19T13:24:15.813Z,87.80
2018-05-19T13:26:43.369Z,87.90
2018-05-19T13:29:11.664Z,88.80
2018-05-19T13:31:39.228Z,88.80
2018-05-19T13:34:06.757Z,89.50
2018-05-19T13:36:34.294Z,90.30
2018-05-19T13:39:01.872Z,90.60
2018-05-19T13:41:29.472Z,90.60
2018-05-19T13:43:56.978Z,90.60
2018-05-19T13:46:25.325Z,90.80
2018-05-19T13:48:52.882Z,90.80
2018-05-19T13:51:20.457Z,91.30
2018-05-19T13:53:48.053Z,91.20
2018-05-19T13:56:15.585Z,91.00
2018-05-19T13:58:43.137Z,91.30
2018-05-19T14:01:11.486Z,91.40
2018-05-19T14:03:39.030Z,91.30
2018-05-19T14:06:06.572Z,91.50
2018-05-19T14:08:34.924Z,91.50
2018-05-19T14:11:02.457Z,91.50
2018-05-19T14:13:29.989Z,91.50
2018-05-19T14:15:58.344Z,91.50
2018-05-19T14:18:26.799Z,91.50
2018-05-19T14:20:54.336Z,91.40
2018-05-19T14:23:22.157Z,91.60
2018-05-19T14:25:49.719Z,91.80
2018-05-19T14:28:17.266Z,92.10
2018-05-19T14:30:45.617Z,91.10
2018-05-19T14:33:13.159Z,91.10
2018-05-19T14:35:40.705Z,91.30
2018-05-19T14:38:09.046Z,90.60
2018-05-19T14:40:36.601Z,90.50
2018-05-19T14:43:04.129Z,90.80
2018-05-19T14:45:32.474Z,90.40
2018-05-19T14:48:00.021Z,90.40
2018-05-19T14:50:27.565Z,90.10
2018-05-19T14:52:56.005Z,89.50
2018-05-19T14:55:23.583Z,89.40
2018-05-19T14:57:51.116Z,90.10
2018-05-19T15:00:18.696Z,89.40
2018-05-19T15:02:46.279Z,88.90
2018-05-19T15:05:13.814Z,87.90
2018-05-19T15:07:42.248Z,85.40
2018-05-19T15:10:09.816Z,85.30
2018-05-19T15:12:37.348Z,84.80
2018-05-19T15:15:04.930Z,84.20
2018-05-19T15:17:32.481Z,85.10
2018-05-19T15:20:00.016Z,84.70
2018-05-19T15:22:27.640Z,85.50
2018-05-19T15:24:55.173Z,86.40
2018-05-19T15:27:22.711Z,85.70
2018-05-19T15:29:50.298Z,86.00
2018-05-19T15:32:17.837Z,85.10
2018-05-19T15:34:45.379Z,84.60
2018-05-19T15:37:13.738Z,85.90
2018-05-19T15:39:41.383Z,85.90
2018-05-19T15:42:08.934Z,86.10
2018-05-19T15:44:36.508Z,85.60
2018-05-19T15:47:04.445Z,86.40
2018-05-19T15:49:31.990Z,87.20
2018-05-19T15:51:59.562Z,87.30
2018-05-19T15:54:28.521Z,86.70
2018-05-19T15:56:56.057Z,86.60
2018-05-19T15:59:23.642Z,85.70
2018-05-19T16:01:51.168Z,85.50
2018-05-19T16:04:18.705Z,85.40
2018-05-19T16:06:47.100Z,85.30
2018-05-19T16:09:14.656Z,85.30
2018-05-19T16:11:42.953Z,85.10
2018-05-19T16:14:11.317Z,85.50
2018-05-19T16:16:38.852Z,85.50
2018-05-19T16:19:06.389Z,86.10
2018-05-19T16:21:34.729Z,85.10
2018-05-19T16:24:02.298Z,85.10
2018-05-19T16:26:29.831Z,84.60
2018-05-19T16:28:57.902Z,85.80
2018-05-19T16:31:26.205Z,86.10
2018-05-19T16:33:53.743Z,86.10
2018-05-19T16:36:21.345Z,86.30
2018-05-19T16:38:48.880Z,86.30
2018-05-19T16:41:16.405Z,87.50
2018-05-19T16:43:43.984Z,87.60
2018-05-19T16:46:11.512Z,87.30
2018-05-19T16:48:39.814Z,87.10
2018-05-19T16:51:07.385Z,87.10
2018-05-19T16:53:34.917Z,87.20
2018-05-19T16:56:02.459Z,89.10
2018-05-19T16:58:30.033Z,88.50
2018-05-19T17:00:58.024Z,88.20
2018-05-19T17:03:25.602Z,88.50
2018-05-19T17:05:53.234Z,89.50
2018-05-19T17:08:21.505Z,89.20
2018-05-19T17:10:49.804Z,88.90
2018-05-19T17:13:17.397Z,88.80
2018-05-19T17:15:44.933Z,88.70
2018-05-19T17:18:13.241Z,89.00
2018-05-19T17:20:40.821Z,89.00
2018-05-19T17:23:08.354Z,89.60
2018-05-19T17:25:36.646Z,89.70
2018-05-19T17:28:05.058Z,89.50
2018-05-19T17:30:32.546Z,89.50
2018-05-19T17:33:00.096Z,88.80
2018-05-19T17:35:28.204Z,89.10
2018-05-19T17:37:55.741Z,89.80
2018-05-19T17:40:23.293Z,90.10
2018-05-19T17:42:51.728Z,90.10
2018-05-19T17:45:19.280Z,90.10
2018-05-19T17:47:46.816Z,90.30
2018-05-19T17:50:14.407Z,90.40
2018-05-19T17:52:42.712Z,90.90
2018-05-19T17:55:10.256Z,90.90
2018-05-19T17:57:37.838Z,90.90
2018-05-19T18:00:06.166Z,91.30
2018-05-19T18:02:33.718Z,91.20
2018-05-19T18:05:01.305Z,91.20
2018-05-19T18:07:28.886Z,91.40
2018-05-19T18:09:56.450Z,91.50
2018-05-19T18:12:24.032Z,91.70
2018-05-19T18:14:51.602Z,92.00
2018-05-19T18:17:19.256Z,92.00
2018-05-19T18:19:46.852Z,92.00
2018-05-19T18:22:14.398Z,92.10
2018-05-19T18:24:41.933Z,92.20
2018-05-19T18:27:09.512Z,92.20
2018-05-19T18:29:37.896Z,92.40
2018-05-19T18:32:05.416Z,92.40
2018-05-19T18:34:32.994Z,92.50
2018-05-19T18:37:00.529Z,92.70
2018-05-19T18:39:28.426Z,92.70
2018-05-19T18:41:56.006Z,92.90
2018-05-19T18:44:23.541Z,93.10
2018-05-19T18:46:51.856Z,93.40
2018-05-19T18:49:19.443Z,93.40
2018-05-19T18:51:47.033Z,93.60
2018-05-19T18:54:14.573Z,94.10
2018-05-19T18:56:42.181Z,94.10
2018-05-19T18:59:09.815Z,94.10
2018-05-19T19:01:38.181Z,94.20
2018-05-19T19:04:06.533Z,94.30
2018-05-19T19:06:34.071Z,94.30
2018-05-19T19:09:01.621Z,94.50
2018-05-19T19:11:29.216Z,94.50
2018-05-19T19:13:56.779Z,94.50
2018-05-19T19:16:24.349Z,94.60
2018-05-19T19:18:51.933Z,94.80
2018-05-19T19:21:19.471Z,94.90
2018-05-19T19:23:47.780Z,95.30
2018-05-19T19:26:15.383Z,95.20
2018-05-19T19:28:42.982Z,95.30
2018-05-19T19:31:10.489Z,95.50
2018-05-19T19:33:38.082Z,95.60
2018-05-19T19:36:05.641Z,95.70
2018-05-19T19:38:33.320Z,95.90
2018-05-19T19:41:00.966Z,96.00
2018-05-19T19:43:28.836Z,96.10
2018-05-19T19:45:56.749Z,96.20
2018-05-19T19:48:24.534Z,96.30
2018-05-19T19:50:52.297Z,96.60
2018-05-19T19:53:20.024Z,96.70
2018-05-19T19:55:48.086Z,96.90
2018-05-19T19:58:16.639Z,97.10
2018-05-19T20:00:44.349Z,97.10
2018-05-19T20:03:11.946Z,97.30
2018-05-19T20:05:39.504Z,97.00
2018-05-19T20:08:07.035Z,97.10
2018-05-19T20:10:36.427Z,97.50
2018-05-19T20:13:04.752Z,97.70
2018-05-19T20:15:32.295Z,97.70
2018-05-19T20:17:59.877Z,97.90
2018-05-19T20:20:27.655Z,97.90
2018-05-19T20:22:55.159Z,97.90
2018-05-19T20:25:23.037Z,98.00
2018-05-19T20:27:50.633Z,98.00
2018-05-19T20:30:18.229Z,97.90
2018-05-19T20:32:46.580Z,97.80
2018-05-19T20:35:14.148Z,97.80
2018-05-19T20:37:41.686Z,97.80
2018-05-19T20:40:09.260Z,97.90
2018-05-19T20:42:36.840Z,97.90
2018-05-19T20:45:04.365Z,97.70
2018-05-19T20:47:32.713Z,97.30
2018-05-19T20:50:00.279Z,97.20
2018-05-19T20:52:27.853Z,97.20
2018-05-19T20:54:55.448Z,97.20
2018-05-19T20:57:22.986Z,97.10
2018-05-19T20:59:50.523Z,97.00
2018-05-19T21:02:18.873Z,96.90
2018-05-19T21:04:46.412Z,96.90
2018-05-19T21:07:13.978Z,96.90
2018-05-19T21:09:41.546Z,96.90
2018-05-19T21:12:09.088Z,96.90
2018-05-19T21:14:37.427Z,96.80
2018-05-19T21:17:05.001Z,96.80
2018-05-19T21:19:32.532Z,96.70
2018-05-19T21:22:00.829Z,96.80
2018-05-19T21:24:28.399Z,96.80
2018-05-19T21:26:55.939Z,96.90
2018-05-19T21:29:23.462Z,97.10
2018-05-19T21:31:51.114Z,97.20
2018-05-19T21:34:18.655Z,97.20
2018-05-19T21:36:47.072Z,97.40
2018-05-19T21:39:14.667Z,97.40
2018-05-19T21:41:42.220Z,97.50
2018-05-19T21:44:09.763Z,97.70
2018-05-19T21:46:37.339Z,97.80
2018-05-19T21:49:04.964Z,97.80
2018-05-19T21:51:32.505Z,97.40
2018-05-19T21:54:00.072Z,97.30
2018-05-19T21:56:27.605Z,97.20
2018-05-19T21:58:55.237Z,96.90
2018-05-19T22:01:22.821Z,96.60
2018-05-19T22:03:50.358Z,96.30
2018-05-19T22:06:17.898Z,96.20
2018-05-19T22:08:45.488Z,96.00
2018-05-19T22:11:13.806Z,95.40
2018-05-19T22:13:41.393Z,95.40
2018-05-19T22:16:08.971Z,95.10
2018-05-19T22:18:36.520Z,94.80
2018-05-19T22:21:04.098Z,94.80
2018-05-19T22:23:31.672Z,94.60
2018-05-19T22:25:59.822Z,94.30
2018-05-19T22:28:28.152Z,94.10
2018-05-19T22:30:55.737Z,94.10
2018-05-19T22:33:23.263Z,94.00
2018-05-19T22:35:50.821Z,93.90
2018-05-19T22:38:19.156Z,93.90
2018-05-19T22:40:46.809Z,93.80
2018-05-19T22:43:14.337Z,93.80
2018-05-19T22:45:41.932Z,93.80
2018-05-19T22:48:10.225Z,93.90
2018-05-19T22:50:38.525Z,93.90
2018-05-19T22:53:06.117Z,93.90
2018-05-19T22:55:33.680Z,93.80
2018-05-19T22:58:01.222Z,93.70
2018-05-19T23:00:30.490Z,93.60
2018-05-19T23:02:58.028Z,93.60
2018-05-19T23:05:25.575Z,93.60
2018-05-19T23:07:53.920Z,93.50
2018-05-19T23:10:21.457Z,93.50
2018-05-19T23:12:49.057Z,93.30
2018-05-19T23:15:16.629Z,93.20
2018-05-19T23:17:44.163Z,93.10
2018-05-19T23:20:11.706Z,92.90
2018-05-19T23:22:43.964Z,92.90
2018-05-19T23:25:11.521Z,92.80
2018-05-19T23:27:39.061Z,92.70
2018-05-19T23:30:06.652Z,92.70
2018-05-19T23:32:34.203Z,92.60
2018-05-19T23:35:01.741Z,92.60
2018-05-19T23:37:31.023Z,92.60
2018-05-19T23:39:58.548Z,92.60
2018-05-19T23:42:26.080Z,92.60
2018-05-19T23:44:53.657Z,92.50
2018-05-19T23:47:21.964Z,92.50
2018-05-19T23:49:50.270Z,92.50
2018-05-19T23:52:17.953Z,92.50
2018-05-19T23:54:45.509Z,92.70
2018-05-19T23:57:13.051Z,92.60
2018-05-19T23:59:40.624Z,92.60
